Flight Track Log - Related Links

Times and Time Zones

All times are in EST time to prevent confusion due to time zone crossing. See the CSN6318 flight status page for this flight to view local times or setup timezone preferences in your user account.

Time Position Orientation Groundspeed Altitude Reporting Facility
EST Latitude Longitude Course Direction KTS MPH feet Rate Location/Type
Fri 03:09:00 AM 43.8898 87.5954 101° East  Level Estimated
Fri 03:10:00 AM 43.8724 87.7164 101° East  Level Estimated
Fri 03:11:00 AM 43.8548 87.8374 101° East  Level Estimated
Fri 03:12:00 AM 43.8371 87.9583 101° East  Level Estimated
Fri 03:13:00 AM 43.8193 88.0791 102° East  Level Estimated
Fri 03:14:00 AM 43.8014 88.1999 102° East  Level Estimated
Fri 03:15:00 AM 43.7833 88.3205 102° East  Level Estimated
Fri 03:16:00 AM 43.7651 88.4411 102° East  Level Estimated
Fri 03:17:00 AM 43.7468 88.5617 102° East  Level Estimated
Fri 03:18:00 AM 43.7283 88.6822 102° East  Level Estimated
Fri 03:19:00 AM 43.7097 88.8025 102° East  Level Estimated
Fri 03:20:00 AM 43.6910 88.9229 102° East  Level Estimated
Fri 03:21:00 AM 43.6702 89.0559 102° East  Level Estimated
Fri 03:22:00 AM 43.6492 89.1888 102° East  Level Estimated
Fri 03:23:00 AM 43.6281 89.3216 102° East  Level Estimated
Fri 03:24:00 AM 43.6068 89.4544 102° East  Level Estimated
Fri 03:25:00 AM 43.5853 89.5871 103° East  Level Estimated
Fri 03:26:00 AM 43.5637 89.7196 103° East  Level Estimated
Fri 03:27:00 AM 43.5419 89.8521 103° East  Level Estimated
Fri 03:28:00 AM 43.5200 89.9844 103° East  Level Estimated
Fri 03:29:00 AM 43.4980 90.1167 103° East  Level Estimated
Fri 03:30:00 AM 43.4757 90.2489 103° East  Level Estimated
Fri 03:31:00 AM 43.4534 90.3810 103° East  Level Estimated
Fri 03:32:00 AM 43.4308 90.5129 103° East  Level Estimated
Fri 03:33:00 AM 43.4082 90.6448 103° East  Level Estimated
Fri 03:34:00 AM 43.3853 90.7766 103° East  Level Estimated
Fri 03:35:00 AM 43.3624 90.9083 103° East  Level Estimated
Fri 03:36:00 AM 43.3392 91.0398 104° East  Level Estimated
Fri 03:37:00 AM 43.3159 91.1713 104° East  Level Estimated
Fri 03:38:00 AM 43.2925 91.3027 104° East  Level Estimated
Fri 03:39:00 AM 43.2689 91.4340 104° East  Level Estimated
Fri 03:40:00 AM 43.2452 91.5652 104° East  Level Estimated
Fri 03:41:00 AM 43.2213 91.6962 104° East  Level Estimated
Fri 03:42:00 AM 43.1973 91.8272 104° East  Level Estimated
Fri 03:43:00 AM 43.1731 91.9581 104° East  Level Estimated
Fri 03:44:00 AM 43.1488 92.0888 104° East  Level Estimated
Fri 03:45:00 AM 43.1243 92.2195 104° East  Level Estimated
Fri 03:46:00 AM 43.0997 92.3500 104° East  Level Estimated
Fri 03:47:00 AM 43.0749 92.4805 105° East  Level Estimated
Fri 03:48:00 AM 43.0500 92.6108 105° East  Level Estimated
Fri 03:49:00 AM 43.0249 92.7411 105° East  Level Estimated
Fri 03:50:00 AM 42.9997 92.8712 105° East  Level Estimated
Fri 03:51:00 AM 42.9743 93.0012 105° East  Level Estimated
Fri 03:52:00 AM 42.9488 93.1311 105° East  Level Estimated
Fri 03:53:00 AM 42.9232 93.2609 105° East  Level Estimated
Fri 03:54:00 AM 42.8974 93.3906 105° East  Level Estimated
Fri 03:55:00 AM 42.8714 93.5202 105° East  Level Estimated
Fri 03:56:00 AM 42.8453 93.6497 105° East  Level Estimated
Fri 03:57:00 AM 42.8414 93.6692 105° East  Level Estimated
Fri 03:58:00 AM 42.8414 93.6692 246° West  Level Estimated
Fri 03:59:00 AM 42.8414 93.6692 246° West  Level Estimated
Fri 04:00:00 AM 42.8414 93.6692 246° West  Level Estimated
Fri 04:01:00 AM 42.8414 93.6692 246° West  Level Estimated
Fri 04:02:00 AM 42.8414 93.6692 246° West  Level Estimated
Fri 04:03:00 AM 42.8414 93.6692 246° West  Level Estimated
Fri 04:04:00 AM 42.8414 93.6692 246° West  Level Estimated
Fri 04:05:00 AM 42.8414 93.6692 246° West  Level Estimated
Fri 04:06:00 AM 42.8414 93.6692 246° West  Level Estimated
Fri 04:07:00 AM 42.8414 93.6692 246° West  Level Estimated
Fri 04:08:00 AM 42.8414 93.6692 246° West  Level Estimated
Fri 04:09:00 AM 42.8414 93.6692 246° West  Level Estimated
Fri 04:10:00 AM 42.8414 93.6692 246° West  Level Estimated

Login

Don't have an account? Register now (free) for customized features, flight alerts, and more!